Algona, IA (50511)

4:53 PM CDT on August 31, 2015 (GMT -0500)
Algona Municipal | | Change Station
CLOSE
Current Station
Airport
Location: Algona,
Elevation: 1220 ft
Nearby Weather Stations

Elev 1220 ft 43.08 °N, 94.27 °W | Updated 18 minutes ago

Scattered Clouds
Scattered Clouds
82 °F
Feels Like 88 °F
N
8
Wind Variable Wind from South
Gusts 17 mph

Today
High -- | Low -- °F
--% Chance of Precip.
Yesterday
High -- | Low -- °F
Precip. -- in
6:39 AM 7:53 PM
Waning Gibbous, 93% visible
Pressure 29.93 in
Visibility 10.0 miles
Clouds Scattered Clouds 3100 ft
Scattered Clouds 4000 ft
Scattered Clouds 5000 ft
Heat Index 88 °F
Dew Point 73 °F
Humidity 74%
Rainfall 0.00 in
Snow Depth Not available.
UV 3 out of 12
Pollen 10.80 out of 12
Air Quality Not available.
Flu Activity Not available.
METAR KAXA 312135Z AUTO 19007G15KT 10SM SCT031 SCT040 SCT050 28/23 A2993 RMK AO2
Pressure 29.93 in
Visibility 10.0 miles
Clouds Scattered Clouds 3100 ft
Scattered Clouds 4000 ft
Scattered Clouds 5000 ft
Heat Index 88 °F
Dew Point 73 °F
Humidity 74%
Rainfall 0.00 in
Snow Depth Not available.
UV 3 out of 12
Pollen 10.80 out of 12
Air Quality Not available.
Flu Activity Not available.
METAR KAXA 312135Z AUTO 19007G15KT 10SM SCT031 SCT040 SCT050 28/23 A2993 RMK AO2

10-Day Weather Forecast

×

Almanac

Astronomy

Aug. 31, 2015 Rise Set
Actual Time
Civil Twilight
Nautical Twilight
Astronomical Twilight
Moon
Length of Visible Light
Length of Day
Tomorrow will be .
, % of the Moon is Illuminated

Today's Extremes

State Highs State Lows

Community

WunderPhotos

Upload Photos

1,851,377 photos uploaded!

WunderBlogs® & News

Nearby

Air Quality

  Air Quality AQ Index Pollutant
Not available.

Snow Depth

Station Depth Elevation

Earthquake Activity

City Distance Mag. Time & Date
Minimum magnitude displayed is 2.5.

Coastal Water Temperatures

Place Temperature

Stations

Nearby Weather Stations

Station Location Temp. Windchill Dew Point Humidity Wind Precip. Elev Updated Type